Time,TemperatureF,DewpointF,PressureIn,WindDirection,WindDirectionDegrees,WindSpeedMPH,WindSpeedGustMPH,Humidity,HourlyPrecipIn,Conditions,Clouds,dailyrainin,SoftwareType,DateUTC
2013-11-12 00:00:00,30.2,29.2,30.11,East,84,9.0,9.0,96,0.00,,,0.00,Wunderground v.1.15,2013-11-12 09:00:00,
2013-11-12 00:05:00,30.3,29.3,30.10,ESE,102,8.0,11.0,96,0.00,,,0.00,Wunderground v.1.15,2013-11-12 09:05:00,
2013-11-12 00:10:00,30.3,29.3,30.10,ESE,107,8.0,8.0,96,0.00,,,0.00,Wunderground v.1.15,2013-11-12 09:10:00,
2013-11-12 00:15:00,30.3,29.3,30.10,ESE,102,9.0,9.0,96,0.00,,,0.00,Wunderground v.1.15,2013-11-12 09:15:00,
2013-11-12 00:20:00,30.3,29.3,30.10,ESE,104,9.0,9.0,96,0.00,,,0.00,Wunderground v.1.15,2013-11-12 09:20:00,
2013-11-12 00:25:00,30.2,29.2,30.10,East,101,9.0,9.0,96,0.00,,,0.00,Wunderground v.1.15,2013-11-12 09:25:00,
2013-11-12 00:30:00,30.2,29.2,30.10,ESE,106,9.0,9.0,96,0.00,,,0.00,Wunderground v.1.15,2013-11-12 09:30:00,
2013-11-12 00:35:00,30.1,29.1,30.10,ESE,107,9.0,9.0,96,0.00,,,0.00,Wunderground v.1.15,2013-11-12 09:35:00,
2013-11-12 00:40:00,29.9,28.9,30.09,ESE,111,9.0,9.0,96,0.00,,,0.00,Wunderground v.1.15,2013-11-12 09:40:00,
2013-11-12 00:45:00,29.8,28.8,30.10,East,96,9.0,9.0,96,0.00,,,0.00,Wunderground v.1.15,2013-11-12 09:45:00,
2013-11-12 00:50:00,29.8,28.8,30.09,East,101,8.0,11.0,96,0.00,,,0.00,Wunderground v.1.15,2013-11-12 09:50:00,
2013-11-12 00:55:00,29.8,28.8,30.09,ESE,105,8.0,11.0,96,0.00,,,0.00,Wunderground v.1.15,2013-11-12 09:55:00,
2013-11-12 01:05:00,29.9,28.9,30.09,East,90,8.0,8.0,96,0.00,,,0.00,Wunderground v.1.15,2013-11-12 10:05:00,
2013-11-12 01:10:00,29.9,28.9,30.09,ESE,111,8.0,12.0,96,0.00,,,0.00,Wunderground v.1.15,2013-11-12 10:10:00,
2013-11-12 01:15:00,29.9,28.9,30.08,East,97,8.0,12.0,96,0.00,,,0.00,Wunderground v.1.15,2013-11-12 10:15:00,
2013-11-12 01:20:00,29.9,28.9,30.08,East,90,8.0,8.0,96,0.00,,,0.00,Wunderground v.1.15,2013-11-12 10:20:00,
2013-11-12 01:25:00,29.8,28.8,30.08,East,90,8.0,8.0,96,0.00,,,0.00,Wunderground v.1.15,2013-11-12 10:25:00,
2013-11-12 01:30:00,29.8,28.8,30.08,ESE,103,9.0,9.0,96,0.00,,,0.00,Wunderground v.1.15,2013-11-12 10:30:00,
2013-11-12 01:35:00,29.9,28.9,30.07,East,97,8.0,9.0,96,0.00,,,0.00,Wunderground v.1.15,2013-11-12 10:35:00,
2013-11-12 01:40:00,29.9,28.9,30.07,ESE,109,8.0,9.0,96,0.00,,,0.00,Wunderground v.1.15,2013-11-12 10:40:00,
2013-11-12 01:45:00,29.9,28.9,30.07,ESE,112,8.0,9.0,96,0.00,,,0.00,Wunderground v.1.15,2013-11-12 10:45:00,
2013-11-12 01:50:00,29.9,28.9,30.06,East,99,8.0,12.0,96,0.00,,,0.00,Wunderground v.1.15,2013-11-12 10:50:00,
2013-11-12 01:55:00,29.8,28.8,30.06,East,80,8.0,12.0,96,0.00,,,0.00,Wunderground v.1.15,2013-11-12 10:55:00,
2013-11-12 02:00:00,29.8,28.8,30.06,East,92,8.0,9.0,96,0.00,,,0.00,Wunderground v.1.15,2013-11-12 11:00:00,
2013-11-12 02:05:00,29.7,28.7,30.06,East,96,8.0,9.0,96,0.00,,,0.00,Wunderground v.1.15,2013-11-12 11:05:00,
2013-11-12 02:10:00,29.7,28.7,30.06,East,101,8.0,8.0,96,0.00,,,0.00,Wunderground v.1.15,2013-11-12 11:10:00,
2013-11-12 02:15:00,29.7,28.7,30.05,ESE,102,8.0,11.0,96,0.00,,,0.00,Wunderground v.1.15,2013-11-12 11:15:00,
2013-11-12 02:20:00,29.6,28.6,30.05,East,99,9.0,11.0,96,0.00,,,0.00,Wunderground v.1.15,2013-11-12 11:20:00,
2013-11-12 02:30:00,29.6,28.6,30.04,East,101,9.0,9.0,96,0.00,,,0.00,Wunderground v.1.15,2013-11-12 11:30:00,
2013-11-12 02:40:00,29.5,28.5,30.03,East,91,8.0,8.0,96,0.00,,,0.00,Wunderground v.1.15,2013-11-12 11:40:00,
2013-11-12 02:45:00,29.6,28.6,30.02,East,94,7.0,9.0,96,0.00,,,0.00,Wunderground v.1.15,2013-11-12 11:45:00,
2013-11-12 02:50:00,29.6,28.3,30.02,ENE,70,7.0,7.0,95,0.00,,,0.00,Wunderground v.1.15,2013-11-12 11:50:00,
2013-11-12 02:55:00,29.6,28.3,30.02,East,82,7.0,7.0,95,0.00,,,0.00,Wunderground v.1.15,2013-11-12 11:55:00,
2013-11-12 03:00:00,29.7,28.7,30.02,ENE,77,8.0,8.0,96,0.00,,,0.00,Wunderground v.1.15,2013-11-12 12:00:00,
2013-11-12 03:05:00,29.7,28.4,30.01,ENE,72,8.0,8.0,95,0.00,,,0.00,Wunderground v.1.15,2013-11-12 12:05:00,
2013-11-12 03:10:00,29.7,28.4,30.01,ESE,104,8.0,8.0,95,0.00,,,0.00,Wunderground v.1.15,2013-11-12 12:10:00,
2013-11-12 03:15:00,29.7,28.4,30.01,ENE,76,7.0,8.0,95,0.00,,,0.00,Wunderground v.1.15,2013-11-12 12:15:00,
2013-11-12 03:20:00,29.7,28.7,30.01,ENE,78,8.0,8.0,96,0.00,,,0.00,Wunderground v.1.15,2013-11-12 12:20:00,
2013-11-12 03:25:00,29.7,28.7,30.01,ESE,113,8.0,8.0,96,0.00,,,0.00,Wunderground v.1.15,2013-11-12 12:25:00,
2013-11-12 03:30:00,29.7,28.7,30.01,East,80,8.0,8.0,96,0.00,,,0.00,Wunderground v.1.15,2013-11-12 12:30:00,
2013-11-12 03:35:00,29.7,28.7,30.01,East,93,8.0,8.0,96,0.00,,,0.00,Wunderground v.1.15,2013-11-12 12:35:00,
2013-11-12 03:40:00,29.8,28.8,30.00,East,85,8.0,8.0,96,0.00,,,0.00,Wunderground v.1.15,2013-11-12 12:40:00,
2013-11-12 03:45:00,29.8,28.8,30.00,East,85,8.0,8.0,96,0.00,,,0.00,Wunderground v.1.15,2013-11-12 12:45:00,
2013-11-12 03:50:00,29.8,28.8,29.99,East,84,7.0,8.0,96,0.00,,,0.00,Wunderground v.1.15,2013-11-12 12:50:00,
2013-11-12 03:55:00,29.8,28.8,29.99,East,89,8.0,8.0,96,0.00,,,0.00,Wunderground v.1.15,2013-11-12 12:55:00,
2013-11-12 04:00:00,29.8,28.8,29.98,East,99,9.0,9.0,96,0.00,,,0.00,Wunderground v.1.15,2013-11-12 13:00:00,
2013-11-12 04:05:00,29.8,28.8,29.98,East,84,8.0,9.0,96,0.00,,,0.00,Wunderground v.1.15,2013-11-12 13:05:00,
2013-11-12 04:10:00,29.9,28.9,29.98,ESE,105,8.0,8.0,96,0.00,,,0.00,Wunderground v.1.15,2013-11-12 13:10:00,
2013-11-12 04:15:00,29.9,28.9,29.98,East,96,9.0,9.0,96,0.00,,,0.00,Wunderground v.1.15,2013-11-12 13:15:00,
2013-11-12 04:20:00,29.9,28.9,29.98,East,81,9.0,19.0,96,0.00,,,0.00,Wunderground v.1.15,2013-11-12 13:20:00,
2013-11-12 04:25:00,29.9,28.9,29.98,ESE,102,9.0,19.0,96,0.00,,,0.00,Wunderground v.1.15,2013-11-12 13:25:00,
2013-11-12 04:30:00,29.9,28.9,29.98,East,82,8.0,8.0,96,0.00,,,0.00,Wunderground v.1.15,2013-11-12 13:30:00,
2013-11-12 04:35:00,29.9,28.9,29.98,ENE,77,7.0,11.0,96,0.00,,,0.00,Wunderground v.1.15,2013-11-12 13:35:00,
2013-11-12 04:45:00,29.9,28.9,29.97,ENE,74,8.0,8.0,96,0.00,,,0.00,Wunderground v.1.15,2013-11-12 13:45:00,
2013-11-12 04:50:00,29.9,28.9,29.97,East,90,7.0,7.0,96,0.00,,,0.00,Wunderground v.1.15,2013-11-12 13:50:00,
2013-11-12 04:55:00,30.0,29.0,29.97,East,86,8.0,8.0,96,0.00,,,0.00,Wunderground v.1.15,2013-11-12 13:55:00,
2013-11-12 05:00:00,30.0,29.0,29.97,East,99,8.0,8.0,96,0.00,,,0.00,Wunderground v.1.15,2013-11-12 14:00:00,
2013-11-12 05:05:00,30.1,29.1,29.96,ENE,70,8.0,8.0,96,0.00,,,0.00,Wunderground v.1.15,2013-11-12 14:05:00,
2013-11-12 05:10:00,30.1,29.1,29.97,East,100,6.0,6.0,96,0.00,,,0.00,Wunderground v.1.15,2013-11-12 14:10:00,
2013-11-12 05:15:00,30.1,29.1,29.96,East,85,6.0,6.0,96,0.00,,,0.00,Wunderground v.1.15,2013-11-12 14:15:00,
2013-11-12 05:20:00,30.0,29.0,29.96,East,94,7.0,7.0,96,0.00,,,0.00,Wunderground v.1.15,2013-11-12 14:20:00,
2013-11-12 05:25:00,30.0,29.0,29.96,East,96,6.0,7.0,96,0.00,,,0.00,Wunderground v.1.15,2013-11-12 14:25:00,
2013-11-12 05:30:00,30.0,29.0,29.95,East,90,6.0,6.0,96,0.00,,,0.00,Wunderground v.1.15,2013-11-12 14:30:00,
2013-11-12 05:35:00,30.0,29.0,29.95,East,88,6.0,6.0,96,0.00,,,0.00,Wunderground v.1.15,2013-11-12 14:35:00,
2013-11-12 05:40:00,30.0,29.0,29.95,East,87,7.0,7.0,96,0.00,,,0.00,Wunderground v.1.15,2013-11-12 14:40:00,
2013-11-12 05:45:00,30.0,29.0,29.95,East,93,7.0,7.0,96,0.00,,,0.00,Wunderground v.1.15,2013-11-12 14:45:00,
2013-11-12 05:50:00,30.0,29.0,29.94,East,96,6.0,9.0,96,0.00,,,0.00,Wunderground v.1.15,2013-11-12 14:50:00,
2013-11-12 05:55:00,30.0,29.0,29.94,ENE,65,6.0,9.0,96,0.00,,,0.00,Wunderground v.1.15,2013-11-12 14:55:00,
2013-11-12 06:00:00,30.0,29.3,29.93,East,90,6.0,7.0,97,0.00,,,0.00,Wunderground v.1.15,2013-11-12 15:00:00,
2013-11-12 06:05:00,30.0,29.3,29.93,East,83,6.0,7.0,97,0.00,,,0.00,Wunderground v.1.15,2013-11-12 15:05:00,
2013-11-12 06:10:00,29.9,29.2,29.93,East,96,6.0,7.0,97,0.00,,,0.00,Wunderground v.1.15,2013-11-12 15:10:00,
2013-11-12 06:15:00,30.0,29.3,29.92,ENE,77,6.0,7.0,97,0.00,,,0.00,Wunderground v.1.15,2013-11-12 15:15:00,
2013-11-12 06:20:00,30.0,29.3,29.92,East,94,6.0,6.0,97,0.00,,,0.00,Wunderground v.1.15,2013-11-12 15:20:00,
2013-11-12 06:25:00,29.9,29.2,29.91,ENE,73,6.0,7.0,97,0.00,,,0.00,Wunderground v.1.15,2013-11-12 15:25:00,
2013-11-12 06:30:00,30.0,29.3,29.91,ENE,73,6.0,6.0,97,0.00,,,0.00,Wunderground v.1.15,2013-11-12 15:30:00,
2013-11-12 06:35:00,30.0,29.3,29.91,East,88,5.0,6.0,97,0.00,,,0.00,Wunderground v.1.15,2013-11-12 15:35:00,
2013-11-12 06:40:00,29.9,29.2,29.90,ENE,62,5.0,6.0,97,0.00,,,0.00,Wunderground v.1.15,2013-11-12 15:40:00,
2013-11-12 06:45:00,30.0,29.3,29.90,ENE,69,5.0,8.0,97,0.00,,,0.00,Wunderground v.1.15,2013-11-12 15:45:00,
2013-11-12 06:50:00,30.0,29.3,29.90,ENE,64,6.0,8.0,97,0.00,,,0.00,Wunderground v.1.15,2013-11-12 15:50:00,
2013-11-12 06:55:00,30.1,29.4,29.89,NE,41,6.0,8.0,97,0.00,,,0.00,Wunderground v.1.15,2013-11-12 15:55:00,
2013-11-12 07:00:00,30.1,29.4,29.89,ENE,57,6.0,7.0,97,0.00,,,0.00,Wunderground v.1.15,2013-11-12 16:00:00,
2013-11-12 07:05:00,30.1,29.4,29.89,ENE,74,6.0,8.0,97,0.00,,,0.00,Wunderground v.1.15,2013-11-12 16:05:00,
2013-11-12 07:10:00,30.2,29.5,29.89,NE,50,6.0,11.0,97,0.00,,,0.00,Wunderground v.1.15,2013-11-12 16:10:00,
2013-11-12 07:15:00,30.2,29.5,29.89,NE,56,6.0,11.0,97,0.00,,,0.00,Wunderground v.1.15,2013-11-12 16:15:00,
2013-11-12 07:20:00,30.3,29.6,29.88,East,85,7.0,7.0,97,0.00,,,0.00,Wunderground v.1.15,2013-11-12 16:20:00,
2013-11-12 07:25:00,30.2,29.5,29.87,East,100,6.0,7.0,97,0.00,,,0.00,Wunderground v.1.15,2013-11-12 16:25:00,
2013-11-12 07:30:00,30.2,29.5,29.87,ENE,66,6.0,6.0,97,0.00,,,0.00,Wunderground v.1.15,2013-11-12 16:30:00,
2013-11-12 07:35:00,30.3,29.6,29.87,ENE,68,6.0,13.0,97,0.00,,,0.00,Wunderground v.1.15,2013-11-12 16:35:00,
2013-11-12 07:40:00,30.4,29.7,29.86,ENE,65,7.0,8.0,97,0.00,,,0.00,Wunderground v.1.15,2013-11-12 16:40:00,
2013-11-12 07:45:00,30.4,29.7,29.86,East,99,8.0,13.0,97,0.00,,,0.00,Wunderground v.1.15,2013-11-12 16:45:00,
2013-11-12 07:50:00,30.5,29.8,29.86,East,85,8.0,10.0,97,0.00,,,0.00,Wunderground v.1.15,2013-11-12 16:50:00,
2013-11-12 07:55:00,30.5,29.8,29.85,ENE,69,8.0,10.0,97,0.00,,,0.00,Wunderground v.1.15,2013-11-12 16:55:00,
2013-11-12 08:00:00,30.6,29.9,29.86,ENE,60,7.0,7.0,97,0.00,,,0.00,Wunderground v.1.15,2013-11-12 17:00:00,
2013-11-12 08:05:00,30.6,29.9,29.85,ENE,74,7.0,10.0,97,0.00,,,0.00,Wunderground v.1.15,2013-11-12 17:05:00,
2013-11-12 08:10:00,30.6,29.9,29.85,ENE,57,8.0,12.0,97,0.00,,,0.00,Wunderground v.1.15,2013-11-12 17:10:00,
2013-11-12 08:15:00,30.7,29.7,29.84,ENE,70,8.0,12.0,96,0.00,,,0.00,Wunderground v.1.15,2013-11-12 17:15:00,
2013-11-12 08:20:00,30.7,29.7,29.84,NE,47,8.0,8.0,96,0.00,,,0.00,Wunderground v.1.15,2013-11-12 17:20:00,
2013-11-12 08:25:00,30.7,29.7,29.84,ENE,73,8.0,8.0,96,0.00,,,0.00,Wunderground v.1.15,2013-11-12 17:25:00,
2013-11-12 08:35:00,30.8,29.8,29.83,ENE,71,7.0,10.0,96,0.00,,,0.00,Wunderground v.1.15,2013-11-12 17:35:00,
2013-11-12 08:40:00,30.8,30.0,29.83,NE,53,7.0,7.0,97,0.00,,,0.00,Wunderground v.1.15,2013-11-12 17:40:00,
2013-11-12 08:45:00,30.8,30.0,29.83,ENE,63,7.0,7.0,97,0.00,,,0.00,Wunderground v.1.15,2013-11-12 17:45:00,
2013-11-12 08:50:00,30.8,30.0,29.83,ENE,73,6.0,6.0,97,0.00,,,0.00,Wunderground v.1.15,2013-11-12 17:50:00,
2013-11-12 08:55:00,30.8,30.0,29.83,ENE,59,5.0,6.0,97,0.00,,,0.00,Wunderground v.1.15,2013-11-12 17:55:00,
2013-11-12 09:00:00,30.8,29.8,29.83,ENE,59,5.0,5.0,96,0.00,,,0.00,Wunderground v.1.15,2013-11-12 18:00:00,
2013-11-12 09:05:00,30.8,29.8,29.82,ENE,65,6.0,6.0,96,0.00,,,0.00,Wunderground v.1.15,2013-11-12 18:05:00,
2013-11-12 09:10:00,30.8,29.8,29.82,NE,54,6.0,8.0,96,0.00,,,0.00,Wunderground v.1.15,2013-11-12 18:10:00,
2013-11-12 09:15:00,30.8,30.0,29.82,NE,34,6.0,10.0,97,0.00,,,0.00,Wunderground v.1.15,2013-11-12 18:15:00,
2013-11-12 09:20:00,30.8,30.0,29.81,NE,44,6.0,10.0,97,0.00,,,0.00,Wunderground v.1.15,2013-11-12 18:20:00,
2013-11-12 09:25:00,30.8,30.0,29.82,NNE,23,6.0,10.0,97,0.00,,,0.00,Wunderground v.1.15,2013-11-12 18:25:00,
2013-11-12 09:30:00,30.9,30.1,29.81,NE,49,7.0,7.0,97,0.00,,,0.00,Wunderground v.1.15,2013-11-12 18:30:00,
2013-11-12 09:35:00,30.9,30.1,29.82,NE,36,7.0,7.0,97,0.00,,,0.00,Wunderground v.1.15,2013-11-12 18:35:00,
2013-11-12 09:40:00,30.9,30.1,29.82,North,360,7.0,8.0,97,0.00,,,0.00,Wunderground v.1.15,2013-11-12 18:40:00,
2013-11-12 09:45:00,30.9,30.1,29.82,NE,38,7.0,8.0,97,0.00,,,0.00,Wunderground v.1.15,2013-11-12 18:45:00,
2013-11-12 09:50:00,30.9,30.1,29.82,NNE,29,7.0,7.0,97,0.00,,,0.00,Wunderground v.1.15,2013-11-12 18:50:00,
2013-11-12 09:55:00,31.0,30.2,29.82,NNE,26,6.0,7.0,97,0.00,,,0.00,Wunderground v.1.15,2013-11-12 18:55:00,
2013-11-12 10:00:00,31.0,30.2,29.81,NNE,20,7.0,10.0,97,0.00,,,0.00,Wunderground v.1.15,2013-11-12 19:00:00,
2013-11-12 10:05:00,31.1,30.3,29.80,NNE,30,8.0,10.0,97,0.00,,,0.00,Wunderground v.1.15,2013-11-12 19:05:00,
2013-11-12 10:10:00,31.1,30.3,29.80,NNE,24,8.0,10.0,97,0.00,,,0.00,Wunderground v.1.15,2013-11-12 19:10:00,
2013-11-12 10:15:00,31.2,30.4,29.80,NE,51,8.0,10.0,97,0.00,,,0.00,Wunderground v.1.15,2013-11-12 19:15:00,
2013-11-12 10:20:00,31.3,30.5,29.80,NNE,30,9.0,9.0,97,0.00,,,0.00,Wunderground v.1.15,2013-11-12 19:20:00,
2013-11-12 10:25:00,31.3,30.5,29.79,North,360,9.0,9.0,97,0.00,,,0.00,Wunderground v.1.15,2013-11-12 19:25:00,
2013-11-12 10:30:00,31.4,30.6,29.79,NE,55,9.0,9.0,97,0.00,,,0.00,Wunderground v.1.15,2013-11-12 19:30:00,
2013-11-12 10:35:00,31.4,30.6,29.80,NE,42,9.0,9.0,97,0.00,,,0.00,Wunderground v.1.15,2013-11-12 19:35:00,
2013-11-12 10:40:00,31.5,30.7,29.79,NNE,33,9.0,9.0,97,0.00,,,0.00,Wunderground v.1.15,2013-11-12 19:40:00,
2013-11-12 10:45:00,31.6,30.8,29.79,NNE,26,9.0,10.0,97,0.00,,,0.00,Wunderground v.1.15,2013-11-12 19:45:00,
2013-11-12 10:50:00,31.7,30.9,29.79,NE,34,9.0,10.0,97,0.00,,,0.00,Wunderground v.1.15,2013-11-12 19:50:00,
2013-11-12 10:55:00,31.7,30.9,29.79,North,11,10.0,10.0,97,0.00,,,0.00,Wunderground v.1.15,2013-11-12 19:55:00,
2013-11-12 11:00:00,31.7,30.9,29.78,NE,48,9.0,9.0,97,0.00,,,0.00,Wunderground v.1.15,2013-11-12 20:00:00,
2013-11-12 11:05:00,31.7,30.9,29.78,North,5,9.0,12.0,97,0.00,,,0.00,Wunderground v.1.15,2013-11-12 20:05:00,
2013-11-12 11:10:00,31.8,31.0,29.77,NNE,28,9.0,9.0,97,0.00,,,0.00,Wunderground v.1.15,2013-11-12 20:10:00,
2013-11-12 11:15:00,31.9,31.1,29.77,NNE,24,9.0,10.0,97,0.00,,,0.00,Wunderground v.1.15,2013-11-12 20:15:00,
2013-11-12 11:20:00,32.1,31.3,29.77,NE,50,9.0,9.0,97,0.00,,,0.00,Wunderground v.1.15,2013-11-12 20:20:00,
2013-11-12 11:25:00,32.0,31.2,29.76,NE,43,9.0,9.0,97,0.00,,,0.00,Wunderground v.1.15,2013-11-12 20:25:00,
2013-11-12 11:30:00,32.1,31.3,29.76,NE,46,9.0,13.0,97,0.00,,,0.00,Wunderground v.1.15,2013-11-12 20:30:00,
2013-11-12 11:35:00,32.2,31.4,29.76,NE,53,8.0,13.0,97,0.00,,,0.00,Wunderground v.1.15,2013-11-12 20:35:00,
2013-11-12 11:40:00,32.4,31.6,29.76,ENE,69,7.0,7.0,97,0.00,,,0.00,Wunderground v.1.15,2013-11-12 20:40:00,
2013-11-12 11:45:00,32.5,31.7,29.76,ENE,63,7.0,7.0,97,0.00,,,0.00,Wunderground v.1.15,2013-11-12 20:45:00,
2013-11-12 11:50:00,32.6,31.8,29.76,ENE,61,7.0,8.0,97,0.00,,,0.00,Wunderground v.1.15,2013-11-12 20:50:00,
2013-11-12 11:55:00,32.7,31.9,29.75,ENE,63,7.0,8.0,97,0.00,,,0.00,Wunderground v.1.15,2013-11-12 20:55:00,
2013-11-12 12:00:00,32.7,31.9,29.75,East,80,7.0,7.0,97,0.00,,,0.00,Wunderground v.1.15,2013-11-12 21:00:00,
2013-11-12 12:05:00,32.7,31.9,29.74,ENE,64,7.0,7.0,97,0.00,,,0.00,Wunderground v.1.15,2013-11-12 21:05:00,
2013-11-12 12:10:00,32.7,31.9,29.74,East,95,6.0,6.0,97,0.00,,,0.00,Wunderground v.1.15,2013-11-12 21:10:00,
2013-11-12 12:15:00,32.7,31.9,29.74,ENE,74,5.0,6.0,97,0.00,,,0.00,Wunderground v.1.15,2013-11-12 21:15:00,
2013-11-12 12:20:00,32.7,31.9,29.73,East,90,5.0,6.0,97,0.00,,,0.00,Wunderground v.1.15,2013-11-12 21:20:00,
2013-11-12 12:25:00,32.7,31.9,29.72,East,87,5.0,6.0,97,0.00,,,0.00,Wunderground v.1.15,2013-11-12 21:25:00,
2013-11-12 12:30:00,32.7,31.9,29.72,ESE,104,5.0,5.0,97,0.00,,,0.00,Wunderground v.1.15,2013-11-12 21:30:00,
2013-11-12 12:35:00,32.7,31.9,29.72,ESE,104,5.0,8.0,97,0.00,,,0.00,Wunderground v.1.15,2013-11-12 21:35:00,
2013-11-12 12:40:00,32.7,31.9,29.71,East,85,6.0,6.0,97,0.00,,,0.00,Wunderground v.1.15,2013-11-12 21:40:00,
2013-11-12 12:45:00,32.6,31.8,29.71,ESE,109,6.0,6.0,97,0.00,,,0.00,Wunderground v.1.15,2013-11-12 21:45:00,
2013-11-12 12:50:00,32.6,31.8,29.71,East,96,6.0,8.0,97,0.00,,,0.00,Wunderground v.1.15,2013-11-12 21:50:00,
2013-11-12 12:55:00,32.6,31.8,29.71,ESE,112,6.0,8.0,97,0.00,,,0.00,Wunderground v.1.15,2013-11-12 21:55:00,
2013-11-12 13:00:00,32.5,31.7,29.70,East,98,6.0,6.0,97,0.00,,,0.00,Wunderground v.1.15,2013-11-12 22:00:00,
2013-11-12 13:05:00,32.5,31.7,29.70,East,93,6.0,6.0,97,0.00,,,0.00,Wunderground v.1.15,2013-11-12 22:05:00,
2013-11-12 13:10:00,32.5,31.7,29.70,ESE,103,7.0,7.0,97,0.00,,,0.00,Wunderground v.1.15,2013-11-12 22:10:00,
2013-11-12 13:15:00,32.5,31.7,29.70,ESE,102,7.0,8.0,97,0.00,,,0.00,Wunderground v.1.15,2013-11-12 22:15:00,
2013-11-12 13:20:00,32.4,31.6,29.69,East,99,7.0,9.0,97,0.00,,,0.00,Wunderground v.1.15,2013-11-12 22:20:00,
2013-11-12 13:30:00,32.3,31.5,29.69,East,94,7.0,8.0,97,0.00,,,0.00,Wunderground v.1.15,2013-11-12 22:30:00,
2013-11-12 13:35:00,32.3,31.5,29.68,East,101,7.0,8.0,97,0.00,,,0.00,Wunderground v.1.15,2013-11-12 22:35:00,
2013-11-12 13:40:00,32.3,31.5,29.68,East,97,8.0,8.0,97,0.00,,,0.00,Wunderground v.1.15,2013-11-12 22:40:00,
2013-11-12 13:45:00,32.4,31.6,29.68,East,98,7.0,9.0,97,0.00,,,0.00,Wunderground v.1.15,2013-11-12 22:45:00,
2013-11-12 13:50:00,32.4,31.9,29.68,East,101,7.0,7.0,98,0.00,,,0.00,Wunderground v.1.15,2013-11-12 22:50:00,
2013-11-12 13:55:00,32.4,31.9,29.68,ESE,105,7.0,8.0,98,0.00,,,0.00,Wunderground v.1.15,2013-11-12 22:55:00,
2013-11-12 14:05:00,32.4,31.9,29.67,ESE,120,7.0,11.0,98,0.00,,,0.00,Wunderground v.1.15,2013-11-12 23:05:00,
2013-11-12 15:40:00,32.7,32.2,29.60,East,87,8.0,8.0,98,0.00,,,0.00,Wunderground v.1.15,2013-11-13 00:40:00,
2013-11-12 15:45:00,32.7,32.2,29.59,ESE,105,8.0,12.0,98,0.00,,,0.00,Wunderground v.1.15,2013-11-13 00:45:00,
2013-11-12 15:55:00,32.8,32.3,29.59,East,92,8.0,12.0,98,0.00,,,0.00,Wunderground v.1.15,2013-11-13 00:55:00,
2013-11-12 16:00:00,32.9,32.4,29.59,East,86,8.0,10.0,98,0.00,,,0.00,Wunderground v.1.15,2013-11-13 01:00:00,
2013-11-12 16:05:00,32.9,32.4,29.58,East,92,9.0,10.0,98,0.00,,,0.00,Wunderground v.1.15,2013-11-13 01:05:00,
2013-11-12 16:10:00,33.0,32.5,29.56,East,96,9.0,12.0,98,0.00,,,0.00,Wunderground v.1.15,2013-11-13 01:10:00,
2013-11-12 16:15:00,33.0,32.5,29.56,East,95,10.0,12.0,98,0.00,,,0.00,Wunderground v.1.15,2013-11-13 01:15:00,
2013-11-12 16:20:00,33.0,32.5,29.57,ESE,115,10.0,11.0,98,0.00,,,0.00,Wunderground v.1.15,2013-11-13 01:20:00,
2013-11-12 16:25:00,33.0,32.5,29.57,East,98,9.0,11.0,98,0.00,,,0.00,Wunderground v.1.15,2013-11-13 01:25:00,
2013-11-12 16:30:00,33.1,32.6,29.57,ESE,109,8.0,12.0,98,0.00,,,0.00,Wunderground v.1.15,2013-11-13 01:30:00,
2013-11-12 16:35:00,33.1,32.6,29.56,ESE,108,7.0,12.0,98,0.00,,,0.00,Wunderground v.1.15,2013-11-13 01:35:00,
2013-11-12 16:40:00,33.2,32.7,29.56,ESE,117,8.0,8.0,98,0.00,,,0.00,Wunderground v.1.15,2013-11-13 01:40:00,
2013-11-12 16:50:00,33.2,32.7,29.55,ESE,113,8.0,9.0,98,0.00,,,0.00,Wunderground v.1.15,2013-11-13 01:50:00,
2013-11-12 16:55:00,33.2,32.7,29.55,SE,128,8.0,9.0,98,0.00,,,0.00,Wunderground v.1.15,2013-11-13 01:55:00,
2013-11-12 17:00:00,33.3,32.8,29.55,ESE,107,8.0,8.0,98,0.00,,,0.00,Wunderground v.1.15,2013-11-13 02:00:00,
2013-11-12 17:05:00,33.3,32.8,29.55,ESE,104,8.0,8.0,98,0.00,,,0.00,Wunderground v.1.15,2013-11-13 02:05:00,
2013-11-12 17:10:00,33.3,32.8,29.54,ESE,115,7.0,9.0,98,0.00,,,0.00,Wunderground v.1.15,2013-11-13 02:10:00,
2013-11-12 17:15:00,33.4,32.9,29.54,SE,126,6.0,9.0,98,0.00,,,0.00,Wunderground v.1.15,2013-11-13 02:15:00,
2013-11-12 17:20:00,33.5,33.0,29.54,ESE,117,6.0,6.0,98,0.00,,,0.00,Wunderground v.1.15,2013-11-13 02:20:00,
2013-11-12 17:25:00,33.6,33.1,29.54,ESE,115,6.0,6.0,98,0.00,,,0.00,Wunderground v.1.15,2013-11-13 02:25:00,
2013-11-12 17:30:00,33.6,33.1,29.54,ESE,123,5.0,5.0,98,0.00,,,0.00,Wunderground v.1.15,2013-11-13 02:30:00,
2013-11-12 17:35:00,33.6,33.1,29.54,ESE,116,5.0,5.0,98,0.00,,,0.00,Wunderground v.1.15,2013-11-13 02:35:00,
2013-11-12 17:40:00,33.6,33.1,29.55,ESE,121,3.0,3.0,98,0.00,,,0.00,Wunderground v.1.15,2013-11-13 02:40:00,
2013-11-12 17:45:00,33.6,33.1,29.55,ESE,121,1.0,3.0,98,0.00,,,0.00,Wunderground v.1.15,2013-11-13 02:45:00,
2013-11-12 17:50:00,33.6,33.1,29.54,ESE,121,0.0,0.0,98,0.00,,,0.00,Wunderground v.1.15,2013-11-13 02:50:00,
2013-11-12 17:55:00,33.5,33.0,29.54,ESE,121,0.0,0.0,98,0.00,,,0.00,Wunderground v.1.15,2013-11-13 02:55:00,
2013-11-12 18:00:00,33.5,33.0,29.53,ESE,121,0.0,4.0,98,0.00,,,0.00,Wunderground v.1.15,2013-11-13 03:00:00,
2013-11-12 18:05:00,33.7,33.2,29.53,ESE,118,2.0,4.0,98,0.00,,,0.00,Wunderground v.1.15,2013-11-13 03:05:00,
2013-11-12 18:10:00,33.8,33.3,29.53,ESE,117,2.0,2.0,98,0.00,,,0.01,Wunderground v.1.15,2013-11-13 03:10:00,
2013-11-12 18:15:00,33.8,33.3,29.52,ESE,117,1.0,2.0,98,0.00,,,0.01,Wunderground v.1.15,2013-11-13 03:15:00,
2013-11-12 18:20:00,33.9,33.4,29.52,ESE,117,0.0,0.0,98,0.07,,,0.02,Wunderground v.1.15,2013-11-13 03:20:00,
2013-11-12 18:25:00,34.1,33.6,29.51,ESE,115,1.0,4.0,98,0.08,,,0.03,Wunderground v.1.15,2013-11-13 03:25:00,
2013-11-12 18:30:00,34.2,33.9,29.51,East,80,1.0,1.0,99,0.08,,,0.03,Wunderground v.1.15,2013-11-13 03:30:00,
2013-11-12 18:35:00,34.3,34.0,29.51,East,84,2.0,2.0,99,0.06,,,0.04,Wunderground v.1.15,2013-11-13 03:35:00,
2013-11-12 18:40:00,34.4,34.1,29.50,East,82,2.0,2.0,99,0.06,,,0.04,Wunderground v.1.15,2013-11-13 03:40:00,
2013-11-12 18:45:00,34.5,34.0,29.50,East,83,2.0,2.0,98,0.06,,,0.05,Wunderground v.1.15,2013-11-13 03:45:00,
2013-11-12 18:50:00,34.6,34.1,29.50,East,87,2.0,2.0,98,0.06,,,0.05,Wunderground v.1.15,2013-11-13 03:50:00,
2013-11-12 18:55:00,34.6,34.1,29.50,East,87,1.0,2.0,98,0.05,,,0.05,Wunderground v.1.15,2013-11-13 03:55:00,
2013-11-12 19:00:00,34.6,34.1,29.50,East,87,0.0,0.0,98,0.05,,,0.06,Wunderground v.1.15,2013-11-13 04:00:00,
2013-11-12 19:05:00,34.4,33.9,29.50,East,87,0.0,0.0,98,0.05,,,0.06,Wunderground v.1.15,2013-11-13 04:05:00,
2013-11-12 19:10:00,34.6,34.1,29.50,East,87,0.0,0.0,98,0.06,,,0.07,Wunderground v.1.15,2013-11-13 04:10:00,